Terminal Aerodrome Forecast
Issued by NWS

Home | Current Version | Previous Version | Text Only | Print | Product List | Glossary On
Versions: 1 2 3 4 5 6 7 8 9 10 11 12 13 14 15 16 17 18 19 20 21 22 23 24
000
FTUS41 KPBZ 030500
TAFFKL
TAF
KFKL 030520Z 0306/0406 VRB03KT P6SM BKN150
     FM031800 15008KT 3SM -SNPL OVC025
     FM032000 17010KT 2SM -FZRA OVC010
     FM040000 19012KT 2SM -RA OVC005 WS020/21045KT
      AMD LTD TO CLD VIS AND WIND=

USA.gov is the U.S. government's official web portal to all federal, state and local government web resources and services.